Time;durP1;ratioP1;P1;durP2;ratioP2;P2;SDS_P1;SDS_P2;PMS_P1;PMS_P2;Temp;Humidity;BMP_temperature;BMP_pressure;BME280_temperature;BME280_humidity;BME280_pressure;Samples;Min_cycle;Max_cycle;Signal;HPM_P1;HPM_P2
2020/12/30 00:01:04;;;;;;;1999.90;999.90;;;4.10;99.90;;;;;;5072781;28;20116;-89
2020/12/30 00:03:34;;;;;;;1999.90;999.90;;;4.10;99.90;;;;;;5072781;28;20052;-88
2020/12/30 00:06:05;;;;;;;1999.90;999.90;;;4.10;99.90;;;;;;5073429;28;20075;-89
2020/12/30 00:08:40;;;;;;;1999.90;999.90;;;4.10;99.90;;;;;;5072469;28;20057;-89
2020/12/30 00:11:10;;;;;;;1999.90;999.90;;;4.00;99.90;;;;;;5070532;28;20135;-89
2020/12/30 00:13:39;;;;;;;1999.90;999.90;;;4.00;99.90;;;;;;5071991;28;20494;-89
2020/12/30 00:16:10;;;;;;;1999.90;999.90;;;4.00;99.90;;;;;;5071050;28;20052;-89
2020/12/30 00:18:41;;;;;;;1999.90;999.90;;;4.10;99.90;;;;;;5072441;28;20060;-88
2020/12/30 00:21:13;;;;;;;1999.90;999.90;;;4.00;99.90;;;;;;5058734;28;20056;-88
2020/12/30 00:23:42;;;;;;;1999.90;999.90;;;4.00;99.90;;;;;;5065803;28;20053;-88
2020/12/30 00:26:09;;;;;;;1999.90;999.90;;;4.00;99.90;;;;;;5072560;28;20498;-88
2020/12/30 00:28:42;;;;;;;1999.90;999.90;;;4.00;99.90;;;;;;5072512;28;20049;-89
2020/12/30 00:31:09;;;;;;;1999.90;999.90;;;4.00;99.90;;;;;;5071675;28;20106;-88
2020/12/30 00:33:36;;;;;;;1999.90;999.90;;;4.00;99.90;;;;;;5072080;28;20063;-88
2020/12/30 00:36:03;;;;;;;1999.90;999.90;;;4.00;99.90;;;;;;5071848;28;20131;-88
2020/12/30 00:38:30;;;;;;;1999.90;999.90;;;4.00;99.90;;;;;;5071797;28;20044;-89
2020/12/30 00:40:57;;;;;;;1999.90;999.90;;;4.00;99.90;;;;;;5072917;28;20490;-89
2020/12/30 00:43:25;;;;;;;1999.90;999.90;;;4.10;99.90;;;;;;5072553;28;20056;-89
2020/12/30 00:45:53;;;;;;;1999.90;999.90;;;4.00;99.90;;;;;;5075731;28;20090;-88
2020/12/30 00:48:23;;;;;;;1999.90;999.90;;;4.10;99.90;;;;;;5075786;28;20057;-89
2020/12/30 00:50:53;;;;;;;1999.90;999.90;;;4.10;99.90;;;;;;5075515;28;20056;-88
2020/12/30 00:53:20;;;;;;;1999.90;999.90;;;4.10;99.90;;;;;;5075273;28;20094;-88
2020/12/30 00:55:47;;;;;;;1999.90;999.90;;;4.10;99.90;;;;;;5076004;28;20576;-89
2020/12/30 00:58:15;;;;;;;1999.90;999.90;;;4.00;99.90;;;;;;5075045;28;20098;-88
2020/12/30 01:00:42;;;;;;;1999.90;999.90;;;4.10;99.90;;;;;;5075292;28;20049;-88
2020/12/30 01:03:12;;;;;;;1999.90;999.90;;;4.00;99.90;;;;;;5075883;28;20061;-89
2020/12/30 01:05:39;;;;;;;1999.90;999.90;;;4.00;99.90;;;;;;5075710;28;20114;-89
2020/12/30 01:08:06;;;;;;;1999.90;999.90;;;4.10;99.90;;;;;;5076078;28;20454;-88
2020/12/30 01:10:33;;;;;;;1999.90;999.90;;;4.10;99.90;;;;;;5075333;28;20510;-89
2020/12/30 01:13:00;;;;;;;1999.90;999.90;;;4.10;99.90;;;;;;5068307;28;20071;-88
2020/12/30 01:15:29;;;;;;;1999.90;999.90;;;4.10;99.90;;;;;;5076208;28;20569;-89
2020/12/30 01:17:56;;;;;;;1999.90;999.90;;;4.10;99.90;;;;;;5077100;28;20044;-89
2020/12/30 01:20:25;;;;;;;1999.90;999.90;;;4.10;99.90;;;;;;5074249;28;20115;-89
2020/12/30 01:22:53;;;;;;;1999.90;999.90;;;4.10;99.90;;;;;;5075015;28;20144;-89
2020/12/30 01:25:20;;;;;;;1999.90;999.90;;;4.10;99.90;;;;;;5074923;28;20537;-89
2020/12/30 01:27:47;;;;;;;1999.90;999.90;;;4.10;99.90;;;;;;5075799;28;20052;-89
2020/12/30 01:30:14;;;;;;;1999.90;999.90;;;4.10;99.90;;;;;;5075457;28;20518;-89
2020/12/30 01:32:43;;;;;;;1999.90;999.90;;;4.10;99.90;;;;;;5075109;28;20131;-89
2020/12/30 01:35:13;;;;;;;1999.90;999.90;;;4.10;99.90;;;;;;5075249;28;20056;-89
2020/12/30 01:37:41;;;;;;;1999.90;999.90;;;4.10;99.90;;;;;;5074694;28;20136;-89
2020/12/30 01:40:10;;;;;;;1999.90;999.90;;;4.20;99.90;;;;;;5075343;28;20081;-90
2020/12/30 01:42:47;;;;;;;1999.90;999.90;;;4.20;99.90;;;;;;5075350;28;20036;-90
2020/12/30 01:45:14;;;;;;;1999.90;999.90;;;4.20;99.90;;;;;;5075499;28;20076;-89
2020/12/30 01:47:46;;;;;;;1999.90;999.90;;;4.10;99.90;;;;;;5074723;28;20048;-89
2020/12/30 01:50:15;;;;;;;1999.90;999.90;;;4.20;99.90;;;;;;5075653;28;20126;-89
2020/12/30 01:52:44;;;;;;;1999.90;999.90;;;4.10;99.90;;;;;;5072798;28;20060;-89
2020/12/30 01:55:12;;;;;;;1999.90;999.90;;;4.10;99.90;;;;;;5073597;28;20060;-89
2020/12/30 01:57:39;;;;;;;1999.90;999.90;;;4.00;99.90;;;;;;5074454;28;20083;-89
2020/12/30 02:00:08;;;;;;;1999.90;999.90;;;4.00;99.90;;;;;;5074833;28;20217;-88
2020/12/30 02:02:38;;;;;;;1999.90;999.90;;;4.10;99.90;;;;;;5074846;28;20048;-88
2020/12/30 02:05:09;;;;;;;1999.90;999.90;;;4.10;99.90;;;;;;5074946;28;20052;-91
2020/12/30 02:07:36;;;;;;;1999.90;999.90;;;4.00;99.90;;;;;;5074057;28;20040;-91
2020/12/30 02:10:04;;;;;;;1999.90;999.90;;;4.10;99.90;;;;;;5074111;28;20078;-91
2020/12/30 02:12:33;;;;;;;1999.90;999.90;;;4.10;99.90;;;;;;5075211;28;20158;-91
2020/12/30 02:15:00;;;;;;;1999.90;999.90;;;4.20;99.90;;;;;;5074621;28;20106;-91
2020/12/30 02:17:27;;;;;;;1999.90;999.90;;;4.20;99.90;;;;;;5072661;28;20487;-91
2020/12/30 02:19:53;;;;;;;1999.90;999.90;;;4.10;99.90;;;;;;5074451;28;20072;-91
2020/12/30 02:22:23;;;;;;;1999.90;999.90;;;4.10;99.90;;;;;;5074524;28;20485;-90
2020/12/30 02:24:51;;;;;;;1999.90;999.90;;;4.20;99.90;;;;;;5088571;28;20056;-91
2020/12/30 02:27:18;;;;;;;1999.90;999.90;;;4.20;99.90;;;;;;5068583;28;20076;-91
2020/12/30 02:29:45;;;;;;;1999.90;999.90;;;4.10;99.90;;;;;;5054909;28;20053;-91
2020/12/30 02:32:12;;;;;;;1999.90;999.90;;;4.10;99.90;;;;;;5072685;28;20044;-91
2020/12/30 02:34:39;;;;;;;1999.90;999.90;;;4.10;99.90;;;;;;5074489;28;20060;-94
2020/12/30 02:37:06;;;;;;;1999.90;999.90;;;4.10;99.90;;;;;;5075896;28;20079;-95
2020/12/30 02:39:33;;;;;;;1999.90;999.90;;;4.10;99.90;;;;;;5075565;28;20139;-95
2020/12/30 02:42:01;;;;;;;1999.90;999.90;;;4.20;99.90;;;;;;5075258;28;20151;-95
2020/12/30 02:44:28;;;;;;;1999.90;999.90;;;4.20;99.90;;;;;;5075985;28;20083;-95
2020/12/30 02:46:57;;;;;;;1999.90;999.90;;;4.20;99.90;;;;;;5075189;28;20059;-94
2020/12/30 02:49:24;;;;;;;1999.90;999.90;;;4.20;99.90;;;;;;5075199;28;20053;-95
2020/12/30 02:51:51;;;;;;;1999.90;999.90;;;4.20;99.90;;;;;;5075119;28;20056;-94
2020/12/30 02:54:18;;;;;;;1999.90;999.90;;;4.20;99.90;;;;;;5075365;28;20060;-94
2020/12/30 02:56:46;;;;;;;1999.90;999.90;;;4.20;99.90;;;;;;5074683;28;20060;-93
2020/12/30 02:59:14;;;;;;;1999.90;999.90;;;4.20;99.90;;;;;;5074731;28;20122;-94
2020/12/30 03:01:43;;;;;;;1999.90;999.90;;;4.20;99.90;;;;;;5075095;28;20079;-94
2020/12/30 03:04:10;;;;;;;1999.90;999.90;;;4.10;99.90;;;;;;5074753;28;20135;-93
2020/12/30 03:06:37;;;;;;;1999.90;999.90;;;4.20;99.90;;;;;;5074919;28;20110;-93
2020/12/30 03:09:04;;;;;;;1999.90;999.90;;;4.10;99.90;;;;;;5075291;28;20536;-95
2020/12/30 03:11:32;;;;;;;1999.90;999.90;;;4.20;99.90;;;;;;5074909;28;20048;-93
2020/12/30 03:13:59;;;;;;;1999.90;999.90;;;4.10;99.90;;;;;;5075086;28;20487;-94
2020/12/30 03:16:27;;;;;;;1999.90;999.90;;;4.20;99.90;;;;;;5074935;28;20127;-93
2020/12/30 03:18:54;;;;;;;1999.90;999.90;;;4.10;99.90;;;;;;5074633;28;20106;-94
2020/12/30 03:21:21;;;;;;;1999.90;999.90;;;4.10;99.90;;;;;;5074742;28;20129;-93
2020/12/30 03:23:48;;;;;;;1999.90;999.90;;;4.10;99.90;;;;;;5074161;28;20064;-93
2020/12/30 03:26:15;;;;;;;1999.90;999.90;;;4.10;99.90;;;;;;5074244;28;20057;-93
2020/12/30 03:28:42;;;;;;;1999.90;999.90;;;4.10;99.90;;;;;;5074476;28;20044;-93
2020/12/30 03:31:09;;;;;;;1999.90;999.90;;;4.10;99.90;;;;;;5074137;28;20075;-87
2020/12/30 03:33:37;;;;;;;1999.90;999.90;;;4.10;99.90;;;;;;5072065;28;20052;-86
2020/12/30 03:36:04;;;;;;;1999.90;999.90;;;4.10;99.90;;;;;;5073315;28;20045;-87
2020/12/30 03:38:31;;;;;;;1999.90;999.90;;;4.00;99.90;;;;;;5072400;28;20095;-87
2020/12/30 03:40:58;;;;;;;1999.90;999.90;;;4.00;99.90;;;;;;5073624;28;20048;-87
2020/12/30 03:43:25;;;;;;;1999.90;999.90;;;4.00;99.90;;;;;;5073283;28;20045;-87
2020/12/30 03:45:52;;;;;;;1999.90;999.90;;;4.00;99.90;;;;;;5071129;28;20063;-87
2020/12/30 03:48:19;;;;;;;1999.90;999.90;;;4.00;99.90;;;;;;5066083;28;20127;-87
2020/12/30 03:50:47;;;;;;;1999.90;999.90;;;3.90;99.90;;;;;;5064075;28;20057;-87
2020/12/30 03:53:14;;;;;;;1999.90;999.90;;;4.00;99.90;;;;;;5062426;28;20052;-87
2020/12/30 03:55:41;;;;;;;1999.90;999.90;;;4.00;99.90;;;;;;5072776;28;20052;-87
2020/12/30 03:58:08;;;;;;;1999.90;999.90;;;4.00;99.90;;;;;;5072266;28;20418;-87
2020/12/30 04:00:35;;;;;;;1999.90;999.90;;;4.00;99.90;;;;;;5072524;28;20112;-87
2020/12/30 04:03:02;;;;;;;1999.90;999.90;;;4.00;99.90;;;;;;5072518;28;20127;-87
2020/12/30 04:05:29;;;;;;;1999.90;999.90;;;4.00;99.90;;;;;;5073179;28;20131;-87
2020/12/30 04:07:56;;;;;;;1999.90;999.90;;;4.00;99.90;;;;;;5070423;28;20068;-87
2020/12/30 04:10:23;;;;;;;1999.90;999.90;;;4.00;99.90;;;;;;5071082;28;20044;-87
2020/12/30 04:12:50;;;;;;;1999.90;999.90;;;4.00;99.90;;;;;;5072658;28;20084;-87
2020/12/30 04:15:17;;;;;;;1999.90;999.90;;;3.90;99.90;;;;;;5072797;28;20135;-87
2020/12/30 04:17:44;;;;;;;1999.90;999.90;;;3.90;99.90;;;;;;5072210;28;20072;-87
2020/12/30 04:20:11;;;;;;;1999.90;999.90;;;4.00;99.90;;;;;;5075944;28;20079;-87
2020/12/30 04:22:39;;;;;;;1999.90;999.90;;;4.00;99.90;;;;;;5067577;28;20438;-87
2020/12/30 04:25:06;;;;;;;1999.90;999.90;;;4.00;99.90;;;;;;5064802;28;20510;-87
2020/12/30 04:27:33;;;;;;;1999.90;999.90;;;4.00;99.90;;;;;;5077113;28;20052;-88
2020/12/30 04:30:00;;;;;;;1999.90;999.90;;;4.00;99.90;;;;;;5069019;28;20452;-88
2020/12/30 04:32:27;;;;;;;1999.90;999.90;;;4.00;99.90;;;;;;5075073;28;20198;-87
2020/12/30 04:34:54;;;;;;;1999.90;999.90;;;4.00;99.90;;;;;;5076831;28;20490;-88
2020/12/30 04:37:21;;;;;;;1999.90;999.90;;;4.00;99.90;;;;;;5073037;28;20201;-87
2020/12/30 04:39:48;;;;;;;1999.90;999.90;;;4.00;99.90;;;;;;5066062;28;20052;-87
2020/12/30 04:42:20;;;;;;;1999.90;999.90;;;4.00;99.90;;;;;;5081198;28;20081;-87
2020/12/30 04:44:52;;;;;;;1999.90;999.90;;;4.00;99.90;;;;;;5074834;28;20060;-87
2020/12/30 04:47:20;;;;;;;1999.90;999.90;;;4.00;99.90;;;;;;5073768;28;20066;-87
2020/12/30 04:49:47;;;;;;;1999.90;999.90;;;4.00;99.90;;;;;;5077563;28;20070;-87
2020/12/30 04:52:19;;;;;;;1999.90;999.90;;;4.00;99.90;;;;;;5074770;28;20052;-87
2020/12/30 04:54:49;;;;;;;1999.90;999.90;;;4.00;99.90;;;;;;5063941;28;20222;-87
2020/12/30 04:57:23;;;;;;;1999.90;999.90;;;4.00;99.90;;;;;;5075309;28;20107;-88
2020/12/30 04:59:53;;;;;;;1999.90;999.90;;;4.00;99.90;;;;;;5076097;28;20094;-87
2020/12/30 05:02:32;;;;;;;1999.90;999.90;;;4.00;99.90;;;;;;5072275;28;20129;-88
2020/12/30 05:04:59;;;;;;;1999.90;999.90;;;4.00;99.90;;;;;;5076068;28;20072;-87
2020/12/30 05:07:28;;;;;;;1999.90;999.90;;;4.00;99.90;;;;;;5073777;28;20048;-87
2020/12/30 05:09:56;;;;;;;1999.90;999.90;;;4.00;99.90;;;;;;5076124;28;20132;-87
2020/12/30 05:12:25;;;;;;;1999.90;999.90;;;4.00;99.90;;;;;;5075276;28;20048;-87
2020/12/30 05:14:53;;;;;;;1999.90;999.90;;;4.00;99.90;;;;;;5074685;28;20467;-87
2020/12/30 05:17:19;;;;;;;1999.90;999.90;;;4.00;99.90;;;;;;5076236;28;20131;-88
2020/12/30 05:19:47;;;;;;;1999.90;999.90;;;4.00;99.90;;;;;;5074820;28;20048;-87
2020/12/30 05:22:18;;;;;;;1999.90;999.90;;;4.00;99.90;;;;;;5069280;28;20745;-87
2020/12/30 05:24:47;;;;;;;1999.90;999.90;;;4.00;99.90;;;;;;5076141;28;20087;-87
2020/12/30 05:27:15;;;;;;;1999.90;999.90;;;4.00;99.90;;;;;;5075130;28;20132;-87
2020/12/30 05:29:45;;;;;;;1999.90;999.90;;;3.90;99.90;;;;;;5074583;28;20076;-87
2020/12/30 05:32:12;;;;;;;1999.90;999.90;;;3.90;99.90;;;;;;5061598;28;20144;-87
2020/12/30 05:34:39;;;;;;;1999.90;999.90;;;3.90;99.90;;;;;;5067161;28;20064;-87
2020/12/30 05:37:06;;;;;;;1999.90;999.90;;;3.90;99.90;;;;;;5070484;28;20076;-87
2020/12/30 05:39:34;;;;;;;1999.90;999.90;;;3.90;99.90;;;;;;5068084;28;20049;-88
2020/12/30 05:42:15;;;;;;;1999.90;999.90;;;4.00;99.90;;;;;;5055496;28;20057;-88
2020/12/30 05:44:45;;;;;;;1999.90;999.90;;;4.00;99.90;;;;;;5065485;28;20119;-88
2020/12/30 05:47:14;;;;;;;1999.90;999.90;;;4.00;99.90;;;;;;5074966;28;20127;-88
2020/12/30 05:49:43;;;;;;;1999.90;999.90;;;4.10;99.90;;;;;;5061806;28;20124;-88
2020/12/30 05:52:18;;;;;;;1999.90;999.90;;;4.10;99.90;;;;;;5075054;28;20050;-88
2020/12/30 05:54:53;;;;;;;1999.90;999.90;;;4.00;99.90;;;;;;5075258;28;20056;-88
2020/12/30 05:57:23;;;;;;;1999.90;999.90;;;4.10;99.90;;;;;;5061273;28;20088;-87
2020/12/30 05:59:53;;;;;;;1999.90;999.90;;;4.00;99.90;;;;;;5074758;28;20075;-87
2020/12/30 06:02:25;;;;;;;1999.90;999.90;;;4.10;99.90;;;;;;5074920;28;20147;-87
2020/12/30 06:04:53;;;;;;;1999.90;999.90;;;4.00;99.90;;;;;;5074379;28;20053;-88
2020/12/30 06:07:20;;;;;;;1999.90;999.90;;;4.00;99.90;;;;;;5074546;28;20052;-88
2020/12/30 06:09:52;;;;;;;1999.90;999.90;;;4.00;99.90;;;;;;5075138;28;20078;-88
2020/12/30 06:12:27;;;;;;;1999.90;999.90;;;4.10;99.90;;;;;;5067446;28;20057;-87
2020/12/30 06:14:55;;;;;;;1999.90;999.90;;;4.00;99.90;;;;;;5074633;28;20107;-87
2020/12/30 06:17:27;;;;;;;1999.90;999.90;;;4.00;99.90;;;;;;5074978;28;20072;-87
2020/12/30 06:19:55;;;;;;;1999.90;999.90;;;4.10;99.90;;;;;;5075717;28;20047;-87
2020/12/30 06:22:27;;;;;;;1999.90;999.90;;;4.00;99.90;;;;;;5076755;28;20785;-87
2020/12/30 06:24:56;;;;;;;1999.90;999.90;;;4.10;99.90;;;;;;5068702;28;20052;-86
2020/12/30 06:27:25;;;;;;;1999.90;999.90;;;4.10;99.90;;;;;;5073514;28;20079;-87
2020/12/30 06:29:58;;;;;;;1999.90;999.90;;;4.10;99.90;;;;;;5073872;28;20076;-87
2020/12/30 06:32:29;;;;;;;1999.90;999.90;;;4.10;99.90;;;;;;5074050;28;20068;-87
2020/12/30 06:34:57;;;;;;;1999.90;999.90;;;4.10;99.90;;;;;;5072715;28;20104;-87
2020/12/30 06:37:43;;;;;;;1999.90;999.90;;;4.00;99.90;;;;;;5074219;28;20479;-87
2020/12/30 06:40:25;;;;;;;1999.90;999.90;;;4.00;99.90;;;;;;5073859;28;20098;-87
2020/12/30 06:42:55;;;;;;;1999.90;999.90;;;4.00;99.90;;;;;;5062517;28;20080;-87
2020/12/30 06:45:50;;;;;;;1999.90;999.90;;;4.00;99.90;;;;;;5072643;28;20086;-87
2020/12/30 06:48:18;;;;;;;1999.90;999.90;;;4.00;99.90;;;;;;5068238;28;20041;-90
2020/12/30 06:50:45;;;;;;;1999.90;999.90;;;3.90;99.90;;;;;;5067116;28;20131;-90
2020/12/30 06:53:32;;;;;;;1999.90;999.90;;;4.00;99.90;;;;;;5074800;28;20064;-91
2020/12/30 06:56:01;;;;;;;1999.90;999.90;;;4.00;99.90;;;;;;5066944;28;20056;-90
2020/12/30 06:58:49;;;;;;;1999.90;999.90;;;3.90;99.90;;;;;;5068455;28;20063;-90
2020/12/30 07:01:19;;;;;;;1999.90;999.90;;;3.90;99.90;;;;;;5069982;28;20063;-91
2020/12/30 07:03:48;;;;;;;1999.90;999.90;;;3.90;99.90;;;;;;5068265;28;20139;-91
2020/12/30 07:06:31;;;;;;;1999.90;999.90;;;3.90;99.90;;;;;;5068351;28;20053;-91
2020/12/30 07:09:00;;;;;;;1999.90;999.90;;;3.90;99.90;;;;;;5069137;28;20936;-91
2020/12/30 07:11:43;;;;;;;1999.90;999.90;;;3.90;99.90;;;;;;5068147;28;20090;-91
2020/12/30 07:14:12;;;;;;;1999.90;999.90;;;3.90;99.90;;;;;;5064212;28;20106;-91
2020/12/30 07:16:44;;;;;;;1999.90;999.90;;;3.90;99.90;;;;;;5065843;28;20107;-91
2020/12/30 07:19:13;;;;;;;1999.90;999.90;;;3.90;99.90;;;;;;5069638;28;20137;-91
2020/12/30 07:21:51;;;;;;;1999.90;999.90;;;3.80;99.90;;;;;;5067084;28;20102;-91
2020/12/30 07:24:20;;;;;;;1999.90;999.90;;;3.80;99.90;;;;;;5061088;28;20136;-91
2020/12/30 07:26:49;;;;;;;1999.90;999.90;;;3.80;99.90;;;;;;5060825;28;20051;-88
2020/12/30 07:29:17;;;;;;;1999.90;999.90;;;3.80;99.90;;;;;;5064218;28;20089;-87
2020/12/30 07:31:49;;;;;;;1999.90;999.90;;;3.80;99.90;;;;;;5060512;28;20135;-93
2020/12/30 07:34:18;;;;;;;1999.90;999.90;;;3.90;99.90;;;;;;5072314;28;20162;-93
2020/12/30 07:36:46;;;;;;;1999.90;999.90;;;3.80;99.90;;;;;;5071320;28;20097;-93
2020/12/30 07:39:14;;;;;;;1999.90;999.90;;;3.80;99.90;;;;;;5065992;28;20113;-93
2020/12/30 07:41:45;;;;;;;1999.90;999.90;;;3.80;99.90;;;;;;5073849;28;20072;-92
2020/12/30 07:44:13;;;;;;;1999.90;999.90;;;3.80;99.90;;;;;;5073897;28;20173;-93
2020/12/30 07:46:43;;;;;;;1999.90;999.90;;;3.80;99.90;;;;;;5072234;28;20068;-92
2020/12/30 07:49:14;;;;;;;1999.90;999.90;;;3.80;99.90;;;;;;5073837;28;20048;-93
2020/12/30 07:51:49;;;;;;;1999.90;999.90;;;3.80;99.90;;;;;;5067573;28;20044;-93
2020/12/30 07:54:18;;;;;;;1999.90;999.90;;;3.80;99.90;;;;;;5074111;28;20438;-92
2020/12/30 07:56:45;;;;;;;1999.90;999.90;;;3.80;99.90;;;;;;5073576;28;20071;-93
2020/12/30 07:59:20;;;;;;;1999.90;999.90;;;3.80;99.90;;;;;;5073666;28;20053;-93
2020/12/30 08:01:54;;;;;;;1999.90;999.90;;;3.90;99.90;;;;;;5072211;28;20468;-94
2020/12/30 08:04:22;;;;;;;1999.90;999.90;;;3.80;99.90;;;;;;5073495;28;20442;-94
2020/12/30 08:06:49;;;;;;;1999.90;999.90;;;3.80;99.90;;;;;;5072822;28;20105;-92
2020/12/30 08:09:17;;;;;;;1999.90;999.90;;;3.90;99.90;;;;;;5073566;28;20136;-92
2020/12/30 08:11:51;;;;;;;1999.90;999.90;;;3.90;99.90;;;;;;5074382;28;20052;-93
2020/12/30 08:14:20;;;;;;;1999.90;999.90;;;3.90;99.90;;;;;;5073877;28;20056;-92
2020/12/30 08:16:55;;;;;;;1999.90;999.90;;;3.90;99.90;;;;;;5073206;28;20106;-93
2020/12/30 08:19:30;;;;;;;1999.90;999.90;;;3.80;99.90;;;;;;5073363;28;20491;-93
2020/12/30 08:22:07;;;;;;;1999.90;999.90;;;3.90;99.90;;;;;;5070746;28;20113;-93
2020/12/30 08:24:37;;;;;;;1999.90;999.90;;;3.90;99.90;;;;;;5063756;28;20053;-94
2020/12/30 08:27:05;;;;;;;1999.90;999.90;;;3.90;99.90;;;;;;5069462;28;20049;-93
2020/12/30 08:29:47;;;;;;;1999.90;999.90;;;3.90;99.90;;;;;;5084392;28;20044;-93
2020/12/30 08:32:18;;;;;;;1999.90;999.90;;;3.90;99.90;;;;;;5081252;28;20052;-94
2020/12/30 08:34:51;;;;;;;1999.90;999.90;;;3.90;99.90;;;;;;5082043;28;20379;-94
2020/12/30 08:37:23;;;;;;;1999.90;999.90;;;4.00;99.90;;;;;;5073533;28;20056;-92
2020/12/30 08:39:56;;;;;;;1999.90;999.90;;;4.00;99.90;;;;;;5064603;28;20040;-92
2020/12/30 08:42:56;;;;;;;1999.90;999.90;;;4.00;99.90;;;;;;5073414;28;20053;-93
2020/12/30 08:45:27;;;;;;;1999.90;999.90;;;4.00;99.90;;;;;;5064476;28;20502;-92
2020/12/30 08:47:55;;;;;;;1999.90;999.90;;;4.10;99.90;;;;;;5073113;28;20127;-91
2020/12/30 08:50:26;;;;;;;1999.90;999.90;;;4.10;99.90;;;;;;5073740;28;20098;-92
2020/12/30 08:52:55;;;;;;;1999.90;999.90;;;4.20;99.90;;;;;;5070118;28;20056;-93
2020/12/30 08:55:22;;;;;;;1999.90;999.90;;;4.20;99.90;;;;;;5067228;28;20048;-93
2020/12/30 08:57:50;;;;;;;1999.90;999.90;;;4.20;99.90;;;;;;5070995;28;20056;-93
2020/12/30 09:00:19;;;;;;;1999.90;999.90;;;4.20;99.90;;;;;;5067764;28;20503;-94
2020/12/30 09:02:48;;;;;;;1999.90;999.90;;;4.20;99.90;;;;;;5068864;28;20056;-93
2020/12/30 09:05:26;;;;;;;1999.90;999.90;;;4.30;99.90;;;;;;5068336;28;20056;-93
2020/12/30 09:07:54;;;;;;;1999.90;999.90;;;4.30;99.90;;;;;;5071105;28;20052;-92
2020/12/30 09:10:21;;;;;;;1999.90;999.90;;;4.30;99.90;;;;;;5076886;28;20044;-92
2020/12/30 09:13:10;;;;;;;1999.90;999.90;;;4.40;99.90;;;;;;5077089;28;20105;-91
2020/12/30 09:15:37;;;;;;;1999.90;999.90;;;4.40;99.90;;;;;;5076861;28;20052;-92
2020/12/30 09:18:04;;;;;;;1999.90;999.90;;;4.50;99.90;;;;;;5076467;28;20060;-92
2020/12/30 09:20:33;;;;;;;1999.90;999.90;;;4.50;99.90;;;;;;5076124;28;20061;-93
2020/12/30 09:23:01;;;;;;;1999.90;999.90;;;4.50;99.90;;;;;;5086485;28;20559;-92
2020/12/30 09:25:31;;;;;;;1999.90;999.90;;;4.50;99.90;;;;;;5071207;28;20172;-93
2020/12/30 09:27:59;;;;;;;1999.90;999.90;;;4.60;99.90;;;;;;5078339;28;20060;-93
2020/12/30 09:30:28;;;;;;;1999.90;999.90;;;4.60;99.90;;;;;;5084837;28;20052;-88
2020/12/30 09:33:10;;;;;;;1999.90;999.90;;;4.60;99.90;;;;;;5080328;28;20134;-88
2020/12/30 09:35:39;;;;;;;1999.90;999.90;;;4.50;99.90;;;;;;5073060;28;20040;-88
2020/12/30 09:38:07;;;;;;;1999.90;999.90;;;4.60;99.90;;;;;;5074160;28;20055;-88
2020/12/30 09:40:42;;;;;;;1999.90;999.90;;;4.60;99.90;;;;;;5081751;28;20040;-88
2020/12/30 09:43:12;;;;;;;1999.90;999.90;;;4.60;99.90;;;;;;5075851;28;20056;-88
2020/12/30 09:45:39;;;;;;;1999.90;999.90;;;4.60;99.90;;;;;;5075170;28;20072;-88
2020/12/30 09:48:10;;;;;;;1999.90;999.90;;;4.60;99.90;;;;;;5066841;28;20518;-88
2020/12/30 09:50:39;;;;;;;1999.90;999.90;;;4.60;99.90;;;;;;5075223;28;20059;-89
2020/12/30 09:53:06;;;;;;;1999.90;999.90;;;4.50;99.90;;;;;;5084537;28;20053;-88
2020/12/30 09:55:34;;;;;;;1999.90;999.90;;;4.50;99.90;;;;;;5075530;28;20048;-88
2020/12/30 09:58:01;;;;;;;1999.90;999.90;;;4.50;99.90;;;;;;5074627;28;20064;-88
2020/12/30 10:00:32;;;;;;;1999.90;999.90;;;4.50;99.90;;;;;;5072810;28;20052;-88
2020/12/30 10:02:59;;;;;;;1999.90;999.90;;;4.50;99.90;;;;;;5074132;28;20486;-88
2020/12/30 10:05:26;;;;;;;1999.90;999.90;;;4.50;99.90;;;;;;5074991;28;20564;-88
2020/12/30 10:07:55;;;;;;;1999.90;999.90;;;4.50;99.90;;;;;;5075617;28;20765;-88
2020/12/30 10:10:23;;;;;;;1999.90;999.90;;;4.50;99.90;;;;;;5072591;28;20056;-88
2020/12/30 10:12:50;;;;;;;1999.90;999.90;;;4.50;99.90;;;;;;5068185;28;20136;-88
2020/12/30 10:15:17;;;;;;;1999.90;999.90;;;4.50;99.90;;;;;;5070610;28;20068;-88
2020/12/30 10:17:45;;;;;;;1999.90;999.90;;;4.60;99.90;;;;;;5072863;28;20060;-88
2020/12/30 10:20:13;;;;;;;1999.90;999.90;;;4.60;99.90;;;;;;5074177;28;20099;-88
2020/12/30 10:22:42;;;;;;;1999.90;999.90;;;4.60;99.90;;;;;;5073551;28;20057;-88
2020/12/30 10:25:12;;;;;;;1999.90;999.90;;;4.60;99.90;;;;;;5062276;28;20108;-88
2020/12/30 10:27:45;;;;;;;1999.90;999.90;;;4.70;99.90;;;;;;5061622;28;20049;-88
2020/12/30 10:30:36;;;;;;;1999.90;999.90;;;4.70;99.90;;;;;;5071064;28;20110;-86
2020/12/30 10:33:13;;;;;;;1999.90;999.90;;;4.70;99.90;;;;;;5071962;28;20065;-87
2020/12/30 10:35:40;;;;;;;1999.90;999.90;;;4.80;99.90;;;;;;5069909;28;20094;-88
2020/12/30 10:38:11;;;;;;;1999.90;999.90;;;4.80;99.90;;;;;;5065778;28;20079;-88
2020/12/30 10:40:40;;;;;;;1999.90;999.90;;;4.80;99.90;;;;;;5070070;28;20143;-87
2020/12/30 10:43:07;;;;;;;1999.90;999.90;;;4.90;99.90;;;;;;5072422;28;20052;-88
2020/12/30 10:45:34;;;;;;;1999.90;999.90;;;4.90;99.90;;;;;;5067963;28;20049;-88
2020/12/30 10:48:01;;;;;;;1999.90;999.90;;;4.90;99.90;;;;;;5071772;28;20052;-88
2020/12/30 10:50:28;;;;;;;1999.90;999.90;;;5.00;99.90;;;;;;5066767;28;20045;-88
2020/12/30 10:52:55;;;;;;;1999.90;999.90;;;5.00;99.90;;;;;;5072808;28;20044;-89
2020/12/30 10:55:22;;;;;;;1999.90;999.90;;;5.00;99.90;;;;;;5072802;28;20071;-88
2020/12/30 10:57:51;;;;;;;1999.90;999.90;;;5.10;99.90;;;;;;5071825;28;20095;-88
2020/12/30 11:00:18;;;;;;;1999.90;999.90;;;5.10;99.90;;;;;;5071720;28;20080;-88
2020/12/30 11:02:46;;;;;;;1999.90;999.90;;;5.10;99.90;;;;;;5066849;28;20154;-88
2020/12/30 11:05:13;;;;;;;1999.90;999.90;;;5.20;99.90;;;;;;5072735;28;20109;-87
2020/12/30 11:07:39;;;;;;;1999.90;999.90;;;5.20;99.90;;;;;;5069787;28;20068;-88
2020/12/30 11:10:07;;;;;;;1999.90;999.90;;;5.20;99.90;;;;;;5068634;28;20068;-88
2020/12/30 11:12:37;;;;;;;1999.90;999.90;;;5.20;99.90;;;;;;5069343;28;20056;-88
2020/12/30 11:15:08;;;;;;;1999.90;999.90;;;5.30;99.90;;;;;;5070020;28;20056;-89
2020/12/30 11:17:38;;;;;;;1999.90;999.90;;;5.30;99.90;;;;;;5068308;28;20125;-89
2020/12/30 11:20:05;;;;;;;1999.90;999.90;;;5.30;99.90;;;;;;5072666;28;20044;-88
2020/12/30 11:22:32;;;;;;;1999.90;999.90;;;5.30;99.90;;;;;;5064837;28;20103;-88
2020/12/30 11:24:59;;;;;;;1999.90;999.90;;;5.30;99.90;;;;;;5068411;28;20060;-88
2020/12/30 11:27:27;;;;;;;1999.90;999.90;;;5.40;99.90;;;;;;5073003;28;20067;-88
2020/12/30 11:29:54;;;;;;;1999.90;999.90;;;5.40;99.90;;;;;;5072747;28;20048;-88
2020/12/30 11:32:22;;;;;;;1999.90;999.90;;;5.40;99.90;;;;;;5071790;28;20060;-88
2020/12/30 11:34:51;;;;;;;1999.90;999.90;;;5.40;99.90;;;;;;5067542;28;20469;-88
2020/12/30 11:37:22;;;;;;;1999.90;999.90;;;5.40;99.90;;;;;;5065267;28;20452;-88
2020/12/30 11:39:49;;;;;;;1999.90;999.90;;;5.50;99.90;;;;;;5062577;28;20102;-89
2020/12/30 11:42:16;;;;;;;1999.90;999.90;;;5.50;99.90;;;;;;5068180;28;20071;-88
2020/12/30 11:44:44;;;;;;;1999.90;999.90;;;5.50;99.90;;;;;;5056719;28;20060;-88
2020/12/30 11:47:11;;;;;;;1999.90;999.90;;;5.50;99.90;;;;;;5073047;28;20048;-89
2020/12/30 11:49:39;;;;;;;1999.90;999.90;;;5.50;99.90;;;;;;5068863;28;20095;-89
2020/12/30 11:52:11;;;;;;;1999.90;999.90;;;5.50;99.90;;;;;;5064972;28;20083;-88
2020/12/30 11:54:38;;;;;;;1999.90;999.90;;;5.50;99.90;;;;;;5070506;28;20072;-88
2020/12/30 11:57:06;;;;;;;1999.90;999.90;;;5.50;99.90;;;;;;5072471;28;20048;-88
2020/12/30 11:59:34;;;;;;;1999.90;999.90;;;5.50;99.90;;;;;;5070027;28;20055;-89
2020/12/30 12:02:04;;;;;;;1999.90;999.90;;;5.50;99.90;;;;;;5072713;28;20114;-88
2020/12/30 12:04:35;;;;;;;1999.90;999.90;;;5.50;99.90;;;;;;5073034;28;20114;-88
2020/12/30 12:07:03;;;;;;;1999.90;999.90;;;5.50;99.90;;;;;;5067997;28;20149;-88
2020/12/30 12:09:30;;;;;;;1999.90;999.90;;;5.50;99.90;;;;;;5065233;28;20348;-89
2020/12/30 12:11:57;;;;;;;1999.90;999.90;;;5.50;99.90;;;;;;5070521;28;20086;-88
2020/12/30 12:14:24;;;;;;;1999.90;999.90;;;5.60;99.90;;;;;;5069074;28;20052;-88
2020/12/30 12:16:52;;;;;;;1999.90;999.90;;;5.60;99.90;;;;;;5066200;28;20115;-88
2020/12/30 12:19:19;;;;;;;1999.90;999.90;;;5.60;99.90;;;;;;5064933;28;20529;-88